createdAt,value
2023-05-02T00:00:45.525Z,13.51
2023-05-02T00:05:47.035Z,13.26
2023-05-02T00:10:48.877Z,13.70
2023-05-02T00:15:50.451Z,13.48
2023-05-02T00:20:51.958Z,13.55
2023-05-02T00:25:53.515Z,14.06
2023-05-02T00:30:55.013Z,13.58
2023-05-02T00:35:56.540Z,13.54
2023-05-02T00:40:58.163Z,13.18
2023-05-02T00:45:59.757Z,13.58
2023-05-02T00:51:04.908Z,13.67
2023-05-02T00:56:07.359Z,13.96
2023-05-02T01:01:44.157Z,13.64
2023-05-02T01:06:59.585Z,13.67
2023-05-02T01:12:25.499Z,13.63
2023-05-02T01:17:30.456Z,13.52
2023-05-02T01:22:33.599Z,13.59
2023-05-02T01:28:06.317Z,13.76
2023-05-02T01:33:11.969Z,13.96
2023-05-02T01:38:16.756Z,13.98
2023-05-02T01:43:20.234Z,13.85
2023-05-02T01:48:22.720Z,13.37
2023-05-02T01:53:30.244Z,13.88
2023-05-02T01:58:34.158Z,13.88
2023-05-02T02:03:35.745Z,13.70
2023-05-02T02:08:37.588Z,13.61
2023-05-02T02:13:47.903Z,13.85
2023-05-02T02:18:49.588Z,13.52
2023-05-02T02:23:54.093Z,13.51
2023-05-02T02:28:56.657Z,13.55
2023-05-02T02:33:58.665Z,13.24
2023-05-02T02:39:12.547Z,13.02
2023-05-02T02:44:28.533Z,13.21
2023-05-02T02:50:00.918Z,13.12
2023-05-02T02:55:22.775Z,12.61
2023-05-02T03:00:27.377Z,12.29
2023-05-02T03:05:30.442Z,12.35
2023-05-02T03:10:33.684Z,12.37
2023-05-02T03:16:23.296Z,12.13
2023-05-02T03:21:25.033Z,12.59
2023-05-02T03:26:27.992Z,12.21
2023-05-02T03:31:29.522Z,12.25
2023-05-02T03:36:31.644Z,12.70
2023-05-02T03:41:33.221Z,12.48
2023-05-02T03:46:40.577Z,12.34
2023-05-02T03:51:45.851Z,12.70
2023-05-02T03:56:49.248Z,12.37
2023-05-02T04:01:57.533Z,12.81
2023-05-02T04:07:09.908Z,12.66
2023-05-02T04:12:11.525Z,12.74
2023-05-02T04:17:17.259Z,12.56
2023-05-02T04:22:23.811Z,12.70
2023-05-02T04:27:30.032Z,12.46
2023-05-02T04:32:32.836Z,12.66
2023-05-02T04:37:35.970Z,12.44
2023-05-02T04:42:38.560Z,12.31
2023-05-02T04:47:48.520Z,11.78
2023-05-02T04:52:50.156Z,11.58
2023-05-02T04:57:51.881Z,11.26
2023-05-02T05:02:53.664Z,11.27
2023-05-02T05:07:55.494Z,11.16
2023-05-02T05:12:59.329Z,11.22
2023-05-02T05:18:02.516Z,11.13
2023-05-02T05:23:04.182Z,11.36
2023-05-02T05:28:06.306Z,10.89
2023-05-02T05:33:10.692Z,10.96
2023-05-02T05:38:12.941Z,11.13
2023-05-02T05:43:17.328Z,10.88
2023-05-02T05:48:19.513Z,10.73
2023-05-02T05:53:21.642Z,11.01
2023-05-02T05:58:24.539Z,10.95
2023-05-02T06:03:28.096Z,10.81
2023-05-02T06:08:29.975Z,10.56
2023-05-02T06:13:31.496Z,11.15
2023-05-02T06:18:33.134Z,10.84
2023-05-02T06:23:34.747Z,10.77
2023-05-02T06:28:36.247Z,10.82
2023-05-02T06:33:37.715Z,10.85
2023-05-02T06:38:39.168Z,10.77
2023-05-02T06:43:41.164Z,10.63
2023-05-02T06:48:42.879Z,11.17
2023-05-02T06:53:44.395Z,10.81
2023-05-02T06:58:45.933Z,11.17
2023-05-02T07:03:47.439Z,11.00
2023-05-02T07:08:48.987Z,11.14
2023-05-02T07:13:50.853Z,11.33
2023-05-02T07:18:52.368Z,11.27
2023-05-02T07:23:55.511Z,11.58
2023-05-02T07:28:56.981Z,11.09
2023-05-02T07:33:58.422Z,11.49
2023-05-02T07:38:59.868Z,11.47
2023-05-02T07:44:01.329Z,11.64
2023-05-02T07:49:02.865Z,11.18
2023-05-02T07:54:15.688Z,12.17
2023-05-02T07:59:17.174Z,12.33
2023-05-02T08:04:18.781Z,11.47
2023-05-02T08:09:20.656Z,11.45
2023-05-02T08:14:22.264Z,11.57
2023-05-02T08:19:23.867Z,11.73
2023-05-02T08:24:25.380Z,12.11
2023-05-02T08:29:26.842Z,12.08
2023-05-02T08:34:28.422Z,12.55
2023-05-02T08:39:33.078Z,12.84
2023-05-02T08:44:34.518Z,12.20
2023-05-02T08:49:37.157Z,12.21
2023-05-02T08:54:39.233Z,12.91
2023-05-02T08:59:42.740Z,11.87
2023-05-02T09:04:52.963Z,11.95
2023-05-02T09:09:54.766Z,11.95
2023-05-02T09:15:19.220Z,12.90
2023-05-02T09:20:22.369Z,13.20
2023-05-02T09:25:24.069Z,12.46
2023-05-02T09:30:26.612Z,12.47
2023-05-02T09:35:28.127Z,12.69
2023-05-02T09:40:30.658Z,12.73
2023-05-02T09:45:32.474Z,12.73
2023-05-02T09:50:37.985Z,13.78
2023-05-02T09:55:39.853Z,13.08
2023-05-02T10:00:43.546Z,12.50
2023-05-02T10:05:46.817Z,13.58
2023-05-02T10:10:54.756Z,13.35
2023-05-02T10:16:04.806Z,14.55
2023-05-02T10:21:11.208Z,13.17
2023-05-02T10:26:16.100Z,14.99
2023-05-02T10:31:18.772Z,15.58
2023-05-02T10:36:22.684Z,13.53
2023-05-02T10:41:27.554Z,14.00
2023-05-02T10:46:34.350Z,14.79
2023-05-02T10:51:37.808Z,15.33
2023-05-02T10:57:08.217Z,18.12
2023-05-02T11:02:28.413Z,14.90
2023-05-02T11:07:31.745Z,15.20
2023-05-02T11:12:47.732Z,15.67
2023-05-02T11:18:01.781Z,14.86
2023-05-02T11:23:16.053Z,13.72
2023-05-02T11:28:36.599Z,17.51
2023-05-02T11:33:38.890Z,15.54
2023-05-02T11:38:40.355Z,14.12
2023-05-02T11:43:41.807Z,15.33
2023-05-02T11:48:43.435Z,13.69
2023-05-02T11:53:44.963Z,14.37
2023-05-02T11:58:58.091Z,15.94
2023-05-02T12:04:03.665Z,13.66
2023-05-02T12:09:11.102Z,14.98
2023-05-02T12:14:12.671Z,14.90
2023-05-02T12:19:14.348Z,16.09
2023-05-02T12:24:16.065Z,15.05
2023-05-02T12:29:17.540Z,14.88
2023-05-02T12:34:38.800Z,15.62
2023-05-02T12:39:42.826Z,15.55
2023-05-02T12:44:46.649Z,15.40
2023-05-02T12:49:56.889Z,16.48
2023-05-02T12:55:16.099Z,16.12
2023-05-02T13:00:18.250Z,16.00
2023-05-02T13:05:20.654Z,16.94
2023-05-02T13:10:24.831Z,15.93
2023-05-02T13:15:26.411Z,14.59
2023-05-02T13:20:27.938Z,14.13
2023-05-02T13:25:29.388Z,14.65
2023-05-02T13:30:30.924Z,15.88
2023-05-02T13:35:33.497Z,14.11
2023-05-02T13:40:36.728Z,15.09
2023-05-02T13:45:38.180Z,13.76
2023-05-02T13:50:39.647Z,14.71
2023-05-02T13:55:41.125Z,14.31
2023-05-02T14:00:42.604Z,14.34
2023-05-02T14:05:44.089Z,14.42
2023-05-02T14:10:45.598Z,13.59
2023-05-02T14:15:47.088Z,15.19
2023-05-02T14:20:48.548Z,15.05
2023-05-02T14:25:49.997Z,14.59
2023-05-02T14:30:51.601Z,14.83
2023-05-02T14:35:53.121Z,15.36
2023-05-02T14:40:55.106Z,14.87
2023-05-02T14:45:57.720Z,14.67
2023-05-02T14:51:00.678Z,14.36
2023-05-02T14:56:02.187Z,15.21
2023-05-02T15:01:03.691Z,15.49
2023-05-02T15:06:05.331Z,14.91
2023-05-02T15:11:06.835Z,15.30
2023-05-02T15:16:10.581Z,15.15
2023-05-02T15:21:12.262Z,14.85
2023-05-02T15:26:13.805Z,16.92
2023-05-02T15:31:15.358Z,14.40
2023-05-02T15:36:17.956Z,14.08
2023-05-02T15:41:19.459Z,15.04
2023-05-02T15:46:21.002Z,15.23
2023-05-02T15:51:22.556Z,15.11
2023-05-02T15:56:24.549Z,14.50
2023-05-02T16:01:26.046Z,14.17
2023-05-02T16:06:27.678Z,15.84
2023-05-02T16:11:29.234Z,14.23
2023-05-02T16:16:30.844Z,15.43
2023-05-02T16:21:32.414Z,14.82
2023-05-02T16:26:34.264Z,15.17
2023-05-02T16:31:35.738Z,14.91
2023-05-02T16:36:37.193Z,14.80
2023-05-02T16:41:38.637Z,15.39
2023-05-02T16:46:41.357Z,15.18
2023-05-02T16:51:42.841Z,14.77
2023-05-02T16:56:44.305Z,14.80
2023-05-02T17:01:45.966Z,14.72
2023-05-02T17:06:47.754Z,14.13
2023-05-02T17:11:50.195Z,14.18
2023-05-02T17:16:51.684Z,14.11
2023-05-02T17:21:54.509Z,13.88
2023-05-02T17:26:56.011Z,14.12
2023-05-02T17:32:00.065Z,13.81
2023-05-02T17:37:01.573Z,13.80
2023-05-02T17:42:03.000Z,13.42
2023-05-02T17:47:04.811Z,13.56
2023-05-02T17:52:06.274Z,13.27
2023-05-02T17:57:08.294Z,13.25
2023-05-02T18:02:10.400Z,13.15
2023-05-02T18:07:12.033Z,13.16
2023-05-02T18:12:13.540Z,12.99
2023-05-02T18:17:14.985Z,12.46
2023-05-02T18:22:19.733Z,12.15
2023-05-02T18:27:21.340Z,12.13
2023-05-02T18:32:22.884Z,11.78
2023-05-02T18:37:31.144Z,11.89
2023-05-02T18:42:32.599Z,11.92
2023-05-02T18:47:34.899Z,11.67
2023-05-02T18:52:36.419Z,11.60
2023-05-02T18:57:37.977Z,11.42
2023-05-02T19:02:39.541Z,11.37
2023-05-02T19:07:41.032Z,11.41
2023-05-02T19:12:43.902Z,11.49
2023-05-02T19:17:45.629Z,11.52
2023-05-02T19:22:47.419Z,11.53
2023-05-02T19:27:49.864Z,11.67
2023-05-02T19:32:51.356Z,11.13
2023-05-02T19:37:52.839Z,11.04
2023-05-02T19:42:54.328Z,10.97
2023-05-02T19:47:56.408Z,10.92
2023-05-02T19:52:58.067Z,10.77
2023-05-02T19:58:04.310Z,10.48
2023-05-02T20:03:05.969Z,10.51
2023-05-02T20:08:07.492Z,10.44
2023-05-02T20:13:09.640Z,10.47
2023-05-02T20:18:11.185Z,10.21
2023-05-02T20:23:13.415Z,10.04
2023-05-02T20:28:15.026Z,10.27
2023-05-02T20:33:17.117Z,9.88
2023-05-02T20:38:20.352Z,9.70
2023-05-02T20:43:23.061Z,9.72
2023-05-02T20:48:24.710Z,9.45
2023-05-02T20:53:26.158Z,9.48
2023-05-02T20:58:27.646Z,9.65
2023-05-02T21:03:29.331Z,9.53
2023-05-02T21:08:30.954Z,9.15
2023-05-02T21:13:32.419Z,9.78
2023-05-02T21:18:33.867Z,9.28
2023-05-02T21:23:35.848Z,9.36
2023-05-02T21:28:38.699Z,9.07
2023-05-02T21:33:41.694Z,9.04
2023-05-02T21:38:43.151Z,8.99
2023-05-02T21:43:45.030Z,9.04
2023-05-02T21:48:46.556Z,8.64
2023-05-02T21:53:48.188Z,8.57
2023-05-02T21:58:51.379Z,8.55
2023-05-02T22:03:52.899Z,8.72
2023-05-02T22:08:54.349Z,8.52
2023-05-02T22:13:55.797Z,8.78
2023-05-02T22:18:57.963Z,8.95
2023-05-02T22:23:59.618Z,8.94
2023-05-02T22:29:01.106Z,8.63
2023-05-02T22:34:02.576Z,8.24
2023-05-02T22:39:06.097Z,7.92
2023-05-02T22:44:08.165Z,8.15
2023-05-02T22:49:10.396Z,8.28
2023-05-02T22:54:11.972Z,8.51
2023-05-02T22:59:13.497Z,8.11
2023-05-02T23:04:15.045Z,7.81
2023-05-02T23:09:16.611Z,7.82
2023-05-02T23:14:20.616Z,7.58
2023-05-02T23:19:22.114Z,7.26
2023-05-02T23:24:23.579Z,8.15
2023-05-02T23:29:25.654Z,8.17
2023-05-02T23:34:27.261Z,7.24
2023-05-02T23:39:29.098Z,6.51
2023-05-02T23:44:31.243Z,6.58
2023-05-02T23:49:32.743Z,6.82
2023-05-02T23:54:35.517Z,6.22
2023-05-02T23:59:37.046Z,6.31
